x

Ilm2 - 5 Miles Se Of Wrightsville Beach, Nc (41038) Weather Station

11:08 - Fri 31st Jul 2015 All times are EDT. -4 hours from GMT.

  • Wind
    7mph, 11mph gusts
  • Sea Temp 83°f
  • Luft Temp 82°f
  • Sea Pressure 1013.4mb
  • Ilm2 - 5 Miles Se Of Wrightsville Beach, Nc
  • Ilm2 - 5 Miles Se Of Wrightsville Beach, Nc

More Historic Weather Station data

Upgrade to MSW Pro to gain access to the past 30 days of data for over 8000 Wavebouys and Weather Stations around the globe.

Join Pro

Comparision Forecast

View Surf forecast
   
Fr 07/31 11:08 7 11 mph 1013.4mb 83f 82f
10:53 9 13 mph 1013.6mb 83f 81f
10:38 11 16 mph 1013.5mb 83f 81f
10:23 11 16 mph 1013.3mb 83f 81f
10:08 11 13 mph 1013.4mb 83f 81f
9:53 11 13 mph 1013.5mb 83f 81f
9:38 13 16 mph 1013.4mb 83f 82f
9:23 11 13 mph 1013mb 83f 81f
9:08 9 13 mph 1012.7mb 83f 81f
8:53 11 16 mph 1012.5mb 83f 80f
8:38 11 13 mph 1012.5mb 83f 80f
8:23 13 18 mph 1011.4mb 83f 80f
8:08 18 22 mph 1012mb 83f 80f
7:53 16 20 mph 1012mb 83f 80f
7:38 20 27 mph 1012.6mb 83f 81f
6:08 16 20 mph 1011.6mb 83f 83f
5:53 13 18 mph 1011.5mb 84f 83f
5:38 16 18 mph 1011.4mb 84f 83f
5:23 13 16 mph 1011.3mb 84f 84f
5:08 9 13 mph 1011.5mb 84f 84f
4:53 9 13 mph 1011.5mb 84f 83f
4:38 9 13 mph 1011.8mb 84f 84f
4:23 11 13 mph 1011.8mb 84f 84f
4:08 9 11 mph 1012mb 84f 84f
3:53 11 13 mph 1012mb 84f 84f
3:38 11 13 mph 1012.2mb 84f 84f
3:23 11 13 mph 1012.5mb 84f 84f
3:08 11 16 mph 1012.7mb 84f 83f
2:08 7 9 mph 1012.7mb 83f 85f
1:53 2 4 mph 1012.7mb 84f 85f
1:38 2 4 mph 1012.7mb 84f 84f
1:23 2
mph
1012.9mb 84f 84f
1:08 2 4 mph 1012.9mb 84f 84f
12:53 2
mph
1013.2mb 83f 85f
12:38 4 7 mph 1013.4mb 83f 83f
12:23 7 9 mph 1013.5mb 83f 83f
12:08 4 7 mph 1013.7mb 83f 83f
11:53 2 4 mph 1013.7mb 83f 85f
11:38 2
mph
1013.7mb 83f 84f
11:23 2 4 mph 1013.5mb 83f 83f
11:08 2 4 mph 1013.3mb 83f 82f
10:53 4 7 mph 1012.9mb 83f 82f
10:38 4 9 mph 1012.6mb 83f 82f
10:23 7 9 mph 1012.4mb 83f 81f
10:08 7 9 mph 1012.3mb 83f 81f
9:53 7 11 mph 1012.2mb 83f 81f
9:38 7 11 mph 1012.3mb 83f 81f
9:23 7 9 mph 1012.7mb 83f 81f
9:08 9 11 mph 1012.9mb 83f 81f
8:53 7 11 mph 1012.9mb 82f 81f
8:38 7 9 mph 1012.8mb 82f 81f
8:23 4 7 mph 1012.6mb 82f 81f
8:08 7 9 mph 1012.3mb 82f 81f
7:53 4 7 mph 1012.4mb 82f 81f
7:38 4 7 mph 1012.3mb 82f 81f
7:23 7 9 mph 1012.3mb 82f 81f
7:08 4 9 mph 1012.2mb 82f 81f
6:53 4 7 mph 1012.2mb 82f 81f
6:38 4 9 mph 1012.1mb 82f 81f
6:23 4 7 mph 1011.8mb 82f 81f
6:08 7 9 mph 1011.7mb 83f 81f
5:53 7 11 mph 1011.4mb 83f 81f
5:38 4 9 mph 1011.4mb 83f 81f
5:23 4 7 mph 1011.3mb 83f 81f
5:08 4 7 mph 1011.2mb 83f 81f
4:53 4 7 mph 1011.1mb 83f 81f
4:38 4 7 mph 1011.1mb 83f 81f
4:23 4 7 mph 1011.1mb 83f 81f
4:08 4 7 mph 1011mb 83f 81f
3:53 4 7 mph 1011mb 83f 81f
3:38 4 9 mph 1011.1mb 83f 81f
3:23 7 9 mph 1011.2mb 83f 81f
3:08 7 9 mph 1011.3mb 83f 81f
2:53 7 9 mph 1011.5mb 83f 81f
2:38 7 9 mph 1011.3mb 83f 81f
2:23 7 11 mph 1011.4mb 83f 81f
2:08 9 11 mph 1011.6mb 83f 81f
1:53 9 11 mph 1011.5mb 83f 82f
1:38 9 11 mph 1011.7mb 83f 82f
1:23 9 11 mph 1011.7mb 83f 82f
1:08 9 11 mph 1012mb 83f 82f
12:53 7 9 mph 1012.2mb 83f 82f
12:38 7 9 mph 1012.4mb 83f 82f
12:23 4 9 mph 1012.6mb 83f 82f
12:08 4 7 mph 1012.6mb 83f 82f
Do 07/30 11:53 4 7 mph 1012.6mb 83f 82f
11:38 4 7 mph 1012.6mb 83f 82f
11:23 2 4 mph 1012.6mb 83f 83f
11:08 4 7 mph 1012.6mb 83f 83f
10:53 4 9 mph 1012.8mb 83f 83f
10:38 7 9 mph 1012.7mb 83f 83f
10:23 7 11 mph 1012.6mb 83f 83f
10:08 7 11 mph 1012.6mb 83f 83f
9:53 7 11 mph 1012.4mb 83f 83f
9:38 7 11 mph 1012.3mb 83f 83f
9:23 7 11 mph 1012.1mb 83f 83f
9:08 7 11 mph 1011.9mb 83f 83f
8:08 9 13 mph 1011.2mb 83f 83f
7:53 11 13 mph 1011.2mb 83f 83f
7:38 11 13 mph 1011.2mb 83f 83f
7:23 11 16 mph 1011.1mb 83f 83f
7:08 11 16 mph 1011.1mb 83f 83f
6:53 11 13 mph 1011.1mb 83f 84f
6:38 11 13 mph 1010.9mb 83f 83f
6:23 13 16 mph 1010.8mb 83f 83f
6:08 11 16 mph 1011.2mb 83f 83f
5:53 11 13 mph 1011.2mb 83f 83f
5:38 11 16 mph 1011mb 84f 83f
5:23 11 13 mph 1011.1mb 84f 83f
5:08 9 13 mph 1011mb 84f 83f
4:53 9 11 mph 1011.3mb 84f 83f
4:38 9 11 mph 1011.3mb 84f 83f
4:23 9 11 mph 1011.6mb 84f 83f
4:08 7 9 mph 1011.7mb 84f 83f
3:53 9 11 mph 1011.8mb 84f 83f
3:38 7 11 mph 1012.1mb 84f 83f
3:23 4 9 mph 1012.3mb 84f 82f
3:08 4 7 mph 1012.5mb 84f 82f
2:53 7 9 mph 1012.7mb 84f 82f
2:38 7 9 mph 1013mb - 82f
2:23 9 11 mph 1013.2mb 84f 82f
2:08 9 11 mph 1013.4mb 84f 82f
1:53 7 9 mph 1013.6mb 84f 82f
1:38 7 9 mph 1013.8mb 84f 82f
1:23 7 9 mph 1014mb 84f 82f
1:08 7 9 mph 1014mb 84f 82f
12:53 7 9 mph 1014.1mb 83f 82f
12:38 4 7 mph 1014.3mb 83f 82f
12:23 4 7 mph 1014.3mb 83f 82f
12:08 7 9 mph 1014.4mb 83f 81f
11:53 7 9 mph 1014.6mb 83f 81f
11:38 7 9 mph 1014.5mb 83f 81f
11:23 4 7 mph 1014.5mb 83f 81f
11:08 4 7 mph 1014.5mb 82f 80f
10:53 4 7 mph 1014.5mb 82f 80f
10:38 4 7 mph 1014.6mb 82f 80f
10:23 4 7 mph 1014.3mb 82f 79f
10:08 7 9 mph 1014.3mb 82f 79f
9:53 7 9 mph 1014.4mb 82f 78f
9:08 7 9 mph 1014.2mb 82f 78f
8:53 9 11 mph 1014mb 82f 78f
8:38 7 11 mph 1013.9mb 82f 79f
8:23 9 11 mph 1014mb 82f 78f
8:08 9 13 mph 1013.7mb 82f 78f
7:53 9 11 mph 1013.7mb 82f 78f
7:38 9 13 mph 1013.5mb 82f 77f
7:23 11 13 mph 1013.5mb 82f 77f
7:08 11 13 mph 1013.5mb 82f 77f
6:53 11 16 mph 1013.1mb 82f 77f
6:38 9 13 mph 1013.2mb 82f 77f
6:23 9 11 mph 1013.1mb 82f 77f
6:08 9 11 mph 1013.2mb 82f 78f
5:53 9 11 mph 1013.1mb 82f 79f
5:38 11 13 mph 1012.9mb 82f 79f
5:23 11 13 mph 1012.8mb 82f 80f
5:08 11 13 mph 1012.9mb 82f 79f
4:53 9 13 mph 1013mb 82f 79f
4:38 9 13 mph 1013.1mb 82f 79f
4:23 9 13 mph 1013mb 82f 79f
4:08 9 13 mph 1013.3mb 82f 79f
3:53 9 11 mph 1013.3mb 82f 79f
3:38 9 11 mph 1013.4mb 82f 79f
3:23 9 13 mph 1013.6mb 82f 79f
3:08 9 13 mph 1013.6mb 82f 79f
2:53 11 16 mph 1013.7mb 82f 79f
2:38 11 13 mph 1013.8mb 82f 79f
2:23 11 16 mph 1013.8mb 82f 79f
2:08 9 13 mph 1014mb 82f 81f
1:53 9 13 mph 1014.4mb 82f 81f
1:08 13 16 mph 1014.5mb 82f 81f
12:53 13 18 mph 1014.4mb 82f 81f
Mi 07/29 11:53 16 20 mph 1014.2mb 82f 81f
11:08 13 18 mph 1014.6mb 82f 82f
10:53 13 18 mph 1014.7mb 82f 82f
10:38 13 18 mph 1014.8mb 82f 82f
10:23 16 20 mph 1014.7mb 82f 82f
10:08 13 20 mph 1014.6mb 82f 82f
9:53 16 20 mph 1014.4mb 82f 82f
9:38 16 20 mph 1014.5mb 82f 82f
9:23 16 20 mph 1014.4mb 82f 82f
9:08 16 22 mph 1014mb 82f 82f
8:53 16 20 mph 1014mb 82f 82f
8:38 16 20 mph 1014mb 82f 82f
8:23 16 20 mph 1014mb 82f 82f
8:08 16 22 mph 1013.8mb 82f 82f
7:53 16 22 mph 1013.9mb 82f 82f
7:38 16 22 mph 1013.6mb 82f 82f
7:23 16 22 mph 1013.7mb 82f 82f
7:08 13 20 mph 1013.7mb 82f 82f
6:53 16 20 mph 1013.7mb 82f 82f
6:38 16 22 mph 1013.8mb 82f 82f
6:23 16 20 mph 1013.9mb 82f 82f
6:08 16 20 mph 1013.9mb 82f 82f
5:53 16 20 mph 1013.8mb 82f 82f
5:38 16 20 mph 1013.8mb 82f 82f
5:23 16 22 mph 1014mb 82f 82f
5:08 16 20 mph 1014mb 82f 82f
4:53 16 20 mph 1014.1mb 82f 82f
4:08 13 18 mph 1014.6mb 82f 82f
3:53 13 18 mph 1014.9mb 82f 82f
3:38 13 16 mph 1015.1mb 82f 82f
3:23 11 16 mph 1015.2mb 82f 82f
3:08 11 16 mph 1015mb 82f 82f
2:53 11 16 mph 1015.3mb 82f 82f
2:38 13 18 mph 1015.2mb 82f 82f
2:23 13 16 mph 1015.2mb 82f 82f
2:08 13 18 mph 1015.3mb 82f 82f
1:53 11 16 mph 1015.6mb 82f 82f
1:38 11 16 mph 1015.7mb 82f 82f
1:23 11 16 mph 1015.9mb 82f 82f
1:08 13 16 mph 1016mb 82f 82f
12:53 13 16 mph 1016.1mb 82f 82f
11:53 11 16 mph 1016.3mb 82f 82f
11:38 11 16 mph 1016.4mb 82f 82f
11:23 13 16 mph 1016.2mb 82f 82f
11:08 13 18 mph 1016.3mb 82f 82f
10:53 13 16 mph 1016.1mb 82f 82f
10:38 11 16 mph 1015.9mb 82f 82f
10:23 13 16 mph 1016mb 82f 82f
10:08 11 16 mph 1016mb 82f 82f
9:53 11 16 mph 1015.9mb 82f 82f
9:38 13 18 mph 1015.9mb 82f 82f
9:23 13 18 mph 1015.7mb 82f 82f
9:08 13 18 mph 1015.4mb 82f 82f
8:53 13 16 mph 1015.3mb 82f 82f
8:38 13 18 mph 1015.1mb 82f 82f
8:23 13 18 mph 1015.1mb 82f 81f
8:08 13 18 mph 1014.9mb 82f 81f
7:53 13 18 mph 1014.8mb 82f 81f
7:38 13 18 mph 1014.7mb 81f 81f
7:23 13 18 mph 1014.7mb 81f 81f
7:08 13 18 mph 1014.8mb 81f 81f
6:53 13 18 mph 1014.7mb 81f 81f
6:08 11 16 mph 1014.6mb 81f 81f
5:53 13 18 mph 1014.3mb 81f 81f
5:38 11 16 mph 1014.2mb 81f 81f
5:23 13 18 mph 1014.2mb 81f 81f
5:08 13 18 mph 1014.1mb 81f 81f
4:53 13 18 mph 1014.1mb 81f 81f
4:08 13 18 mph 1014.4mb 81f 81f
3:53 11 16 mph 1014.4mb 81f 81f
3:38 11 16 mph 1014.5mb 81f 81f
3:23 11 13 mph 1014.7mb 81f 81f
3:08 9 16 mph 1014.9mb 81f 81f
2:53 11 16 mph 1015mb 81f 81f
2:08 11 16 mph 1014.8mb 81f 81f
1:53 11 16 mph 1015mb 81f 81f
1:38 11 16 mph 1015.2mb 81f 81f
1:23 11 13 mph 1015.2mb 81f 81f
1:08 11 16 mph 1015.5mb 81f 81f
12:53 11 16 mph 1015.2mb 81f 81f
12:38 11 16 mph 1015.6mb 81f 81f
12:23 9 13 mph 1015.8mb 81f 81f
12:08 11 13 mph 1015.7mb 81f 81f
Di 07/28 11:53 9 13 mph 1015.5mb 81f 81f
11:38 9 13 mph 1015.6mb 81f 81f
11:23 11 16 mph 1015.4mb 81f 81f
11:08 11 16 mph 1015.4mb 81f 81f
10:53 13 18 mph 1015.2mb 81f 81f
10:08 9 16 mph 1015.4mb 81f 81f
9:53 11 16 mph 1015.2mb 81f 81f
9:38 11 16 mph 1014.9mb 81f 81f
9:23 9 13 mph 1014.9mb 81f 81f
9:08 9 13 mph 1015mb 81f 81f
8:53 9 13 mph 1015.2mb 82f 81f
8:38 9 13 mph 1015.1mb 82f 81f
8:23 9 13 mph 1014.8mb 82f 81f
8:08 9 16 mph 1014.7mb 82f 81f
7:53 11 16 mph 1014.5mb 82f 81f
7:23 11 16 mph 1014.3mb 82f 81f
7:08 11 16 mph 1014mb 82f 82f
6:53 11 16 mph 1014.2mb 82f 82f
5:53 11 16 mph 1014.5mb 82f 82f
4:53 11 16 mph 1014.8mb 82f 82f
3:53 11 13 mph 1015.1mb 82f 82f
2:53 11 16 mph 1015.4mb 82f 82f
11:53 11 16 mph 1016.5mb 81f 81f
10:53 13 18 mph 1016.6mb 81f 81f
9:53 16 20 mph 1015.9mb 81f 81f
9:08 16 20 mph 1015.8mb 81f 81f
8:53 13 18 mph 1015.7mb 81f 81f
8:38 13 18 mph 1015.6mb 81f 81f
8:23 16 20 mph 1015.5mb 81f 81f
8:08 13 18 mph 1015.6mb 81f 81f
7:53 13 18 mph 1015.2mb 81f 81f
7:08 13 18 mph 1015mb 81f 81f
6:53 11 16 mph 1015mb 81f 81f
6:38 13 16 mph 1014.9mb 81f 81f
6:23 11 16 mph 1014.8mb 81f 81f
6:08 11 16 mph 1014.6mb 81f 81f
5:53 11 16 mph 1014.4mb 81f 81f
5:38 11 16 mph 1014.5mb 81f 81f
5:23 11 16 mph 1014.5mb 81f 81f
5:08 11 18 mph 1014.4mb 81f 81f
4:53 11 16 mph 1014.4mb 81f 81f